Latest Weather Observations for Condobolin Airport

IDN60801

Issued at 5:03 pm EDT Wednesday 28 February 2024 (issued every 10 minutes, with the page automatically refreshed every 10 minutes)

About weather observations | Map of weather stations | Latest weather observations for NSW | Other Formats
Station Details ID: 050137 Name: CONDOBOLIN AIRPORT AWS Lat: -33.07 Lon: 147.21 Height: 192.6 m
Data from the previous 72 hours. | See also: Recent months at Condobolin Airport
Date/Time
EDT
Temp
°C
App
Temp
°C
Dew
Point
°C
Rel
Hum
%
Delta-T
°C
Wind Press
QNH
hPa
Press
MSL
hPa
Rain since
9am
mm
Dir  Spd
km/h
Gust
km/h
Spd
kts
Gust
kts
28/05:00pm 39.5 37.3 14.5 23 15.8 N 19 28 10 15 1010.5 1009.4 0.0
28/04:30pm 38.5 35.9 15.0 25 14.9 N 22 32 12 17 1010.7 1009.6 0.0
28/04:00pm 38.9 38.6 16.5 26 14.5 NNW 13 26 7 14 1011.0 1009.9 0.0
28/03:30pm 37.6 35.4 14.8 25 14.4 NNW 20 33 11 18 1011.3 1010.2 0.0
28/03:00pm 38.7 37.0 16.3 26 14.5 NNW 20 28 11 15 1011.7 1010.7 0.0
28/02:30pm 38.9 37.4 17.6 28 14.0 NNW 22 37 12 20 1012.2 1011.2 0.0
28/02:00pm 37.8 35.5 17.7 30 13.2 N 26 37 14 20 1012.5 1011.5 0.0
28/01:30pm 37.4 34.6 17.4 30 13.1 N 28 46 15 25 1012.9 1011.9 0.0
28/01:00pm 36.6 34.0 17.7 32 12.4 NNW 28 41 15 22 1013.3 1012.3 0.0
28/12:30pm 36.0 33.7 17.7 34 11.9 N 26 39 14 21 1013.8 1012.8 0.0
28/12:00pm 35.4 33.7 18.9 37 10.9 NNW 26 39 14 21 1014.3 1013.2 0.0
28/11:30am 34.0 31.9 18.1 39 10.4 N 26 35 14 19 1014.8 1013.7 0.0
28/11:00am 33.3 31.2 19.0 42 9.4 N 28 41 15 22 1014.9 1013.8 0.0
28/10:30am 32.1 29.5 18.7 45 8.8 NNE 30 41 16 22 1014.9 1013.8 0.0
28/10:00am 30.6 29.3 19.0 50 7.6 NNE 24 39 13 21 1015.1 1014.0 0.0
28/09:30am 29.3 28.4 19.0 53 6.7 NNE 22 33 12 18 1015.1 1014.0 0.0
28/09:00am 28.0 26.7 19.0 58 5.8 NNE 24 33 13 18 1015.2 1014.1 0.0
28/08:30am 26.6 25.2 18.7 62 5.1 NE 24 39 13 21 1015.1 1014.0 0.0
28/08:00am 25.3 24.0 18.2 64 4.5 NE 22 30 12 16 1015.0 1013.9 0.0
28/07:30am 24.2 23.5 18.2 69 3.8 NE 19 28 10 15 1014.8 1013.7 0.0
28/07:00am 23.7 22.9 17.9 70 3.7 NE 19 26 10 14 1014.5 1013.4 0.0
28/06:30am 23.9 22.7 17.6 68 4.0 NE 20 30 11 16 1014.1 1013.0 0.0
28/06:00am 24.0 23.5 17.7 68 4.0 NE 17 26 9 14 1013.7 1012.7 0.0
28/05:30am 24.1 23.5 17.6 67 4.1 NE 17 24 9 13 1013.6 1012.6 0.0
28/05:00am 24.1 23.5 17.6 67 4.1 NE 17 26 9 14 1013.4 1012.4 0.0
28/04:30am 24.3 24.2 17.8 67 4.1 NE 15 20 8 11 1013.4 1012.4 0.0
28/04:00am 24.5 24.3 17.5 65 4.4 NE 15 22 8 12 1013.4 1012.4 0.0
28/03:30am 25.1 23.9 17.6 63 4.7 NE 20 30 11 16 1013.5 1012.5 0.0
28/03:00am 25.4 24.2 17.6 62 4.9 NE 20 30 11 16 1013.6 1012.6 0.0
28/02:30am 25.9 24.8 17.8 61 5.1 NE 20 28 11 15 1013.7 1012.7 0.0
28/02:00am 26.1 25.6 17.7 60 5.3 NE 17 24 9 13 1013.9 1012.9 0.0
28/01:30am 25.7 26.2 18.4 64 4.7 NE 13 24 7 13 1013.8 1012.8 0.0
28/01:00am 24.9 24.9 17.1 62 4.9 ENE 13 15 7 8 1014.1 1013.0 0.0
28/12:30am 24.4 24.2 16.6 61 4.8 ENE 13 15 7 8 1014.1 1013.0 0.0
28/12:00am 24.4 24.5 15.6 58 5.4 ENE 9 11 5 6 1014.1 1013.0 0.0
 
Date/Time
EDT
Temp
°C
App
Temp
°C
Dew
Point
°C
Rel
Hum
%
Delta-T
°C
Wind Press
QNH
hPa
Press
MSL
hPa
Rain since
9am
mm
Dir  Spd
km/h
Gust
km/h
Spd
kts
Gust
kts
27/11:30pm 24.6 24.2 15.2 55 5.7 ENE 11 13 6 7 1013.9 1012.9 0.0
27/11:00pm 25.2 25.2 15.2 54 6.1 ENE 9 9 5 5 1013.9 1012.9 0.0
27/10:30pm 25.2 24.8 15.2 54 6.1 ENE 11 13 6 7 1014.1 1013.0 0.0
27/10:00pm 25.9 26.0 15.6 53 6.3 E 9 11 5 6 1013.7 1012.7 0.0
27/09:30pm 26.5 27.1 15.8 51 6.6 E 7 9 4 5 1013.6 1012.6 0.0
27/09:00pm 28.0 28.5 15.6 46 7.7 ESE 7 9 4 5 1013.3 1012.3 0.0
27/08:30pm 28.2 29.0 15.8 47 7.7 ESE 6 7 3 4 1012.9 1011.9 0.0
27/08:00pm 29.8 30.1 15.9 43 8.7 SE 9 11 5 6 1012.5 1011.5 0.0
27/07:30pm 31.5 31.0 15.9 39 9.8 SE 13 17 7 9 1012.2 1011.2 0.0
27/07:00pm 32.9 32.0 15.8 35 10.8 SE 15 19 8 10 1011.9 1010.9 0.0
27/06:30pm 33.9 32.4 15.4 33 11.6 SE 17 24 9 13 1011.8 1010.8 0.0
27/06:00pm 34.1 32.3 15.5 32 11.7 SE 19 24 10 13 1011.7 1010.7 0.0
27/05:30pm 33.9 32.3 14.9 32 11.9 SE 17 26 9 14 1011.7 1010.7 0.0
27/05:00pm 35.1 34.4 15.4 30 12.4 SSE 13 17 7 9 1011.8 1010.8 0.0
27/04:30pm 34.4 33.8 16.7 34 11.3 SE 15 22 8 12 1011.9 1010.9 0.0
27/04:00pm 34.2 34.7 16.5 34 11.3 ENE 9 19 5 10 1012.1 1011.1 0.0
27/03:30pm 35.3 35.8 15.6 31 12.5 ENE 7 13 4 7 1012.3 1011.3 0.0
27/03:00pm 34.1 34.6 16.5 35 11.2 E 9 13 5 7 1012.8 1011.8 0.0
27/02:30pm 33.4 34.1 17.1 37 10.5 NNE 9 17 5 9 1013.0 1012.0 0.0
27/02:00pm 32.5 32.1 17.2 40 9.8 N 15 26 8 14 1013.3 1012.3 0.0
27/01:30pm 31.8 31.6 18.4 45 8.7 NE 17 22 9 12 1013.6 1012.6 0.0
27/01:00pm 31.3 31.1 18.6 46 8.3 NE 17 28 9 15 1013.9 1012.9 0.0
27/12:30pm 31.0 31.0 19.0 48 7.9 NE 17 26 9 14 1014.4 1013.3 0.0
27/12:00pm 30.1 29.8 18.2 49 7.7 NNE 17 26 9 14 1014.7 1013.6 0.0
27/11:30am 28.9 28.1 18.1 52 6.9 NE 19 28 10 15 1015.1 1014.0 0.0
27/11:00am 29.1 28.1 17.9 50 7.2 NE 20 26 11 14 1015.2 1014.1 0.0
27/10:30am 28.1 26.6 17.6 53 6.7 NE 22 30 12 16 1015.3 1014.2 0.0
27/10:00am 27.5 25.4 17.1 53 6.6 NE 24 32 13 17 1015.4 1014.3 0.0
27/09:30am 26.4 25.1 16.9 56 5.9 NE 19 33 10 18 1015.5 1014.4 0.0
27/09:00am 25.3 24.7 16.7 59 5.3 ENE 15 20 8 11 1015.4 1014.3 0.0
27/08:30am 24.5 24.3 16.7 61 4.8 E 13 15 7 8 1015.3 1014.2 0.0
27/08:00am 23.8 24.5 17.1 66 4.2 SE 9 13 5 7 1015.2 1014.1 0.0
27/07:30am 22.1 22.6 16.6 71 3.4 SE 9 11 5 6 1014.9 1013.8 0.0
27/07:00am 22.6 22.7 16.6 69 3.7 E 11 13 6 7 1014.4 1013.3 0.0
27/06:30am 22.3 22.8 16.6 70 3.5 E 9 11 5 6 1013.9 1012.9 0.0
27/06:00am 22.5 22.9 16.3 68 3.8 E 9 13 5 7 1013.7 1012.7 0.0
27/05:30am 22.6 22.7 16.4 68 3.8 ENE 11 15 6 8 1013.3 1012.3 0.0
27/05:00am 22.5 22.5 16.3 68 3.8 E 11 13 6 7 1013.3 1012.3 0.0
27/04:30am 23.3 23.0 16.4 65 4.2 E 13 19 7 10 1013.2 1012.2 0.0
27/04:00am 24.2 23.4 15.1 56 5.5 E 13 17 7 9 1013.3 1012.3 0.0
27/03:30am 24.6 23.1 15.2 55 5.7 NE 17 28 9 15 1013.0 1012.0 0.0
27/03:00am 20.8 19.6 12.8 60 4.6 ENE 11 11 6 6 1012.9 1011.9 0.0
27/02:30am 21.3 20.8 12.2 56 5.2 ENE 6 7 3 4 1012.8 1011.8 0.0
27/02:00am 21.7 22.8 13.6 60 4.7 CALM 0 0 0 0 1012.9 1011.9 0.0
27/01:30am 22.0 22.5 11.7 52 5.8 CALM 0 0 0 0 1013.2 1012.2 0.0
27/01:00am 21.9 23.1 13.8 60 4.7 CALM 0 0 0 0 1013.2 1012.2 0.0
27/12:30am 22.6 23.7 13.4 56 5.4 CALM 0 0 0 0 1013.1 1012.1 0.0
27/12:00am 21.5 22.0 11.5 53 5.6 CALM 0 0 0 0 1013.1 1012.1 0.0
 
Date/Time
EDT
Temp
°C
App
Temp
°C
Dew
Point
°C
Rel
Hum
%
Delta-T
°C
Wind Press
QNH
hPa
Press
MSL
hPa
Rain since
9am
mm
Dir  Spd
km/h
Gust
km/h
Spd
kts
Gust
kts
26/11:30pm 23.0 23.4 11.4 48 6.5 CALM 0 0 0 0 1013.0 1012.0 0.0
26/11:00pm 23.0 23.1 13.8 56 5.4 W 6 7 3 4 1013.3 1012.3 0.0
26/10:30pm 23.4 23.9 11.5 47 6.7 CALM 0 0 0 0 1013.4 1012.4 0.0
26/10:00pm 23.5 24.7 13.7 54 5.8 CALM 0 0 0 0 1013.2 1012.2 0.0
26/09:30pm 24.7 25.8 13.6 50 6.6 CALM 0 0 0 0 1013.2 1012.2 0.0
26/09:00pm 27.5 25.4 5.7 25 11.4 SE 6 7 3 4 1012.9 1011.9 0.0
26/08:30pm 29.9 27.1 5.2 21 13.0 S 9 13 5 7 1012.6 1011.6 0.0
26/08:00pm 30.6 28.4 5.1 20 13.5 S 6 7 3 4 1012.3 1011.3 0.0
26/07:30pm 31.9 28.5 3.8 17 14.6 SSW 11 15 6 8 1012.1 1011.1 0.0
26/07:00pm 32.6 29.3 4.4 17 14.9 SSW 11 15 6 8 1012.0 1011.0 0.0
26/06:30pm 33.5 30.7 5.1 17 15.2 SSW 9 13 5 7 1011.9 1010.9 0.0
26/06:00pm 34.0 30.2 3.7 15 15.9 SSW 13 19 7 10 1011.6 1010.6 0.0
26/05:30pm 34.5 31.1 5.9 17 15.6 S 13 24 7 13 1011.7 1010.7 0.0
26/05:00pm 34.4 30.8 5.0 16 15.8 S 13 22 7 12 1011.8 1010.8 0.0
26/04:30pm 34.6 31.6 6.0 17 15.6 W 11 20 6 11 1012.0 1011.0 0.0
26/04:00pm 34.3 31.8 6.6 18 15.3 SSW 9 17 5 9 1012.2 1011.2 0.0
26/03:30pm 35.1 32.4 7.2 18 15.6 SSW 11 20 6 11 1012.6 1011.6 0.0
26/03:00pm 34.7 32.5 7.7 19 15.2 SE 9 15 5 8 1013.0 1012.0 0.0
26/02:30pm 34.5 31.6 9.7 22 14.4 S 15 24 8 13 1013.4 1012.4 0.0
26/02:00pm 34.1 32.8 10.0 23 14.0 SSW 7 17 4 9 1013.9 1012.9 0.0
26/01:30pm 33.7 32.1 11.5 26 13.2 WSW 11 19 6 10 1014.3 1013.2 0.0
26/01:00pm 33.4 31.3 11.3 26 13.0 S 13 22 7 12 1014.5 1013.4 0.0
26/12:30pm 33.3 33.0 14.4 32 11.7 SSW 9 20 5 11 1014.8 1013.7 0.0
26/12:00pm 32.3 32.1 13.5 32 11.4 WSW 7 17 4 9 1015.1 1014.0 0.0
26/11:30am 31.2 30.4 13.0 33 10.9 SW 9 13 5 7 1015.3 1014.2 0.0
26/11:00am 30.5 30.0 15.0 39 9.6 WSW 11 19 6 10 1015.5 1014.4 0.0
26/10:30am 29.8 29.4 14.0 38 9.6 WSW 9 17 5 9 1015.4 1014.3 0.0
26/10:00am 29.4 29.0 14.0 39 9.3 NNE 9 15 5 8 1014.9 1013.8 0.0
26/09:30am 27.8 27.3 13.7 42 8.4 NNE 9 13 5 7 1014.7 1013.6 0.0
26/09:00am 26.1 26.6 13.9 47 7.3 NE 4 7 2 4 1014.8 1013.7 0.0
26/08:30am 24.0 25.2 15.8 60 5.0 NE 4 9 2 5 1014.7 1013.6 0.0
26/08:00am 19.6 20.4 15.9 79 2.2 NNE 6 9 3 5 1014.3 1013.2 0.0
26/07:30am 15.7 15.9 14.2 91 0.9 NE 6 7 3 4 1014.2 1013.1 0.0
26/07:00am 14.4 15.3 12.8 90 0.9 CALM 0 0 0 0 1013.7 1012.7 0.0
26/06:30am 14.6 15.1 12.8 89 1.0 SW 2 6 1 3 1013.4 1012.4 0.0
26/06:00am 15.1 16.1 13.1 88 1.1 CALM 0 0 0 0 1013.1 1012.1 0.0
26/05:30am 16.0 16.8 13.8 87 1.3 NE 2 7 1 4 1012.9 1011.9 0.0
26/05:00am 15.8 15.6 13.5 86 1.3 NNE 7 7 4 4 1012.9 1011.9 0.0
26/04:30am 16.4 16.2 13.5 83 1.6 ENE 7 9 4 5 1012.6 1011.6 0.0
26/04:00am 17.8 18.6 13.7 77 2.4 W 2 6 1 3 1012.6 1011.6 0.0
26/03:30am 18.6 18.3 13.2 71 3.1 WNW 7 9 4 5 1012.5 1011.5 0.0
26/03:00am 18.3 17.7 13.4 73 2.8 WNW 9 9 5 5 1012.5 1011.5 0.0
26/02:30am 18.4 19.2 13.7 74 2.7 WSW 2 7 1 4 1012.5 1011.5 0.0
26/02:00am 18.4 18.1 14.3 77 2.4 SW 9 13 5 7 1012.7 1011.7 0.0
26/01:30am 19.5 19.5 14.3 72 3.0 NE 7 11 4 6 1012.6 1011.6 0.0
26/01:00am 18.9 17.9 13.3 70 3.2 NNE 11 13 6 7 1012.8 1011.8 0.0
26/12:30am 18.8 18.5 14.5 76 2.5 NNE 9 11 5 6 1012.9 1011.9 0.0
26/12:00am 19.3 19.5 14.8 75 2.6 NE 7 11 4 6 1013.0 1012.0 0.0
 
Date/Time
EDT
Temp
°C
App
Temp
°C
Dew
Point
°C
Rel
Hum
%
Delta-T
°C
Wind Press
QNH
hPa
Press
MSL
hPa
Rain since
9am
mm
Dir  Spd
km/h
Gust
km/h
Spd
kts
Gust
kts
25/11:30pm 20.0 19.8 14.8 72 3.1 E 9 13 5 7 1013.2 1012.2 0.0
25/11:00pm 20.3 21.8 14.7 70 3.3 CALM 0 0 0 0 1013.2 1012.2 0.0
25/10:30pm 20.9 21.1 14.3 66 3.9 SE 6 11 3 6 1013.4 1012.4 0.0
25/10:00pm 21.7 23.2 14.6 64 4.2 CALM 0 0 0 0 1013.4 1012.4 0.0
25/09:30pm 22.3 23.4 13.6 58 5.1 CALM 0 0 0 0 1013.3 1012.3 0.0
25/09:00pm 22.3 23.7 14.4 61 4.7 CALM 0 0 0 0 1013.1 1012.1 0.0
25/08:30pm 24.3 25.9 15.0 56 5.6 CALM 0 0 0 0 1012.8 1011.8 0.0
25/08:00pm 28.9 29.9 13.2 38 9.4 CALM 0 0 0 0 1012.5 1011.5 0.0
25/07:30pm 30.4 30.0 12.3 33 10.7 SSE 6 7 3 4 1012.3 1011.3 0.0
25/07:00pm 31.6 31.0 13.4 33 11.0 S 9 13 5 7 1012.1 1011.1 0.0
25/06:30pm 32.9 32.8 14.0 32 11.6 SSW 7 13 4 7 1011.9 1010.9 0.0
25/06:00pm 32.5 32.2 13.2 31 11.7 SSW 7 13 4 7 1012.0 1011.0 0.0
25/05:30pm 33.6 34.1 14.1 30 12.0 SW 4 11 2 6 1012.1 1011.1 0.0

Other formats

Comma delimited format used in spreadsheet applications
http://www.bom.gov.au/fwo/IDN60801/IDN60801.95708.axf

JavaScript Object Notation format (JSON) in row-major order
http://www.bom.gov.au/fwo/IDN60801/IDN60801.95708.json

Data quality

Most of these data are generated automatically and are frequently updated. Quality checks on data are not normally performed. It is possible for incorrect values to appear. Refer to information at About Latest Weather Observations and please check the disclaimer before using these data.